map of ILR home
ILR - Airport
Location
City:  Ilorin, Kwara, Nigeria
Name:Ilorin Airport
ICAO:DNIL
IATA:ILR

Details
Type:Airport (Aerodrome, Airfield)
Use:Public/Civil
Latitude:826'25"N (8.440211)
Longitude:429'38"E (4.493919)
Datum:WGS 1984
Elevation:1126 ft (343 m)
Variation:1.46W (WMM2015 magnetic declination)
0.10 annual change
Runways:1
Longest:10169 × 197 ft (3100 × 60 m), paved

Time
Time Zone:UTC+1
Local Time:

Weather
METAR:DNIL 141700Z 03036KT CAVOK 31/12 Q1009
TAF:DNIL 142140Z 1500/1606 00000KT CAVOK
TEMPO 1505/1509 09010KT

Related Locations
Nearby:
Farthest:WLS: 12097 mi / 19468 km
Wallis Island [Hihifo], WF

Find:

   beyond  
but within

Other Information
Maps:
NOTAMs:
Links:
Sources:

  
  • flag of Nigeria
  

Sectional Chart

Flight Planning
at skyvector.com

Satellite Image

Google Maps Satellite view

 

Copyright © 2004-2018 Karl L. Swartz. All rights reserved.
The Great Circle Mapper name and logo are trademarks of the Great Circle Mapper.
All other trademarks mentioned herein belong to their respective owners.
Please see credits for attibutions and further copyright information.

  Follow gcmap on Facebook Follow gcmap on Twitter Follow gcmap on Google+ GCmap on LinkedIn

hCard Microformat

Geo Microformat